Time;durP1;ratioP1;P1;durP2;ratioP2;P2;SDS_P1;SDS_P2;PMS_P1;PMS_P2;Temp;Humidity;BMP_temperature;BMP_pressure;BME280_temperature;BME280_humidity;BME280_pressure;Samples;Min_cycle;Max_cycle;Signal;HPM_P1;HPM_P2
2022/02/07 00:00:47;;;;;;;;;2.00;1.00;;;;;10.42;100.00;101402.38;4993701;27;45251;-76
2022/02/07 00:03:33;;;;;;;;;2.00;0.00;;;;;10.40;100.00;101401.44;4998966;27;45387;-76
2022/02/07 00:05:59;;;;;;;;;0.00;0.00;;;;;10.35;100.00;101416.69;5000909;28;45580;-76
2022/02/07 00:08:24;;;;;;;;;0.00;0.00;;;;;10.35;100.00;101419.28;4992388;28;45295;-76
2022/02/07 00:10:50;;;;;;;;;3.50;0.25;;;;;10.35;100.00;101437.41;4974814;28;45534;-76
2022/02/07 00:13:16;;;;;;;;;3.00;1.50;;;;;10.36;100.00;101441.78;4992683;28;45498;-78
2022/02/07 00:15:41;;;;;;;;;1.00;1.00;;;;;10.37;100.00;101446.16;4992740;27;45525;-77
2022/02/07 00:18:07;;;;;;;;;0.00;0.00;;;;;10.37;100.00;101450.41;4990760;28;47627;-77
2022/02/07 00:20:35;;;;;;;;;4.75;1.00;;;;;10.38;100.00;101454.81;4979184;27;45413;-78
2022/02/07 00:23:01;;;;;;;;;3.00;0.00;;;;;10.38;100.00;101449.63;5016331;27;45471;-77
2022/02/07 00:25:27;;;;;;;;;1.00;1.00;;;;;10.38;100.00;101452.22;4995944;27;45639;-76
2022/02/07 00:27:53;;;;;;;;;1.25;1.00;;;;;10.34;100.00;101468.34;4999859;27;46073;-77
2022/02/07 00:30:20;;;;;;;;;1.00;1.00;;;;;10.28;100.00;101473.19;4995631;28;45405;-77
2022/02/07 00:32:48;;;;;;;;;1.00;0.50;;;;;10.28;100.00;101473.19;4995451;27;45333;-77
2022/02/07 00:35:16;;;;;;;;;1.00;1.00;;;;;10.26;100.00;101492.91;4995961;28;45458;-76
2022/02/07 00:37:45;;;;;;;;;1.50;1.00;;;;;10.22;100.00;101490.13;5002825;27;45231;-77
2022/02/07 00:42:54;;;;;;;;;1.00;1.00;;;;;10.14;100.00;101496.56;4995840;27;45594;-76
2022/02/07 00:45:37;;;;;;;;;3.50;1.25;;;;;10.10;100.00;101493.72;4996257;27;45433;-77
2022/02/07 00:48:05;;;;;;;;;1.50;0.25;;;;;10.08;100.00;101511.75;5039903;27;47734;-77
2022/02/07 00:50:33;;;;;;;;;2.25;1.00;;;;;10.09;100.00;101508.38;4996440;27;45764;-76
2022/02/07 00:52:59;;;;;;;;;0.50;0.50;;;;;10.08;100.00;101527.28;4995712;27;45398;-77
2022/02/07 00:55:25;;;;;;;;;1.75;1.00;;;;;10.06;100.00;101529.75;4995653;28;45318;-76
2022/02/07 00:57:50;;;;;;;;;1.00;1.00;;;;;10.03;100.00;101559.75;5094897;27;45372;-77
2022/02/07 01:00:17;;;;;;;;;2.00;1.00;;;;;9.99;100.00;101568.16;5098971;27;45439;-77
2022/02/07 01:02:43;;;;;;;;;0.00;0.00;;;;;9.97;100.00;101574.91;5095424;27;45642;-77
2022/02/07 01:05:10;;;;;;;;;1.00;0.75;;;;;9.91;100.00;101576.31;5098273;27;45401;-77
2022/02/07 01:07:36;;;;;;;;;0.75;0.75;;;;;9.88;99.77;101581.28;5098453;27;46196;-77
2022/02/07 01:10:03;;;;;;;;;1.00;0.00;;;;;9.85;96.17;101590.56;5091224;27;45697;-77
2022/02/07 01:15:11;;;;;;;;;1.00;1.00;;;;;9.83;93.84;101598.25;5099438;27;45588;-84
2022/02/07 01:52:56;;;;;;;;;2.00;2.00;;;;;9.51;86.68;101734.19;4994939;27;45796;-76
2022/02/07 01:57:55;;;;;;;;;0.00;0.00;;;;;9.44;87.47;101751.00;4994673;28;45856;-77
2022/02/07 02:00:21;;;;;;;;;4.25;0.00;;;;;9.41;85.83;101742.16;4994415;27;46073;-76
2022/02/07 02:02:47;;;;;;;;;0.75;0.75;;;;;9.39;88.12;101749.81;5019562;27;45255;-77
2022/02/07 02:05:13;;;;;;;;;1.00;1.00;;;;;9.35;86.19;101752.97;5098066;27;45303;-77
2022/02/07 02:07:42;;;;;;;;;1.00;1.00;;;;;9.31;88.12;101773.34;5077721;27;45606;-77
2022/02/07 02:10:09;;;;;;;;;1.00;1.00;;;;;9.28;88.80;101767.19;5090165;27;46134;-76
2022/02/07 02:12:46;;;;;;;;;1.00;1.00;;;;;9.25;89.04;101769.56;5096588;27;45824;-75
2022/02/07 02:15:35;;;;;;;;;0.75;0.75;;;;;9.24;88.78;101772.06;5083026;27;45516;-77
2022/02/07 02:34:42;;;;;;;;;1.00;1.00;;;;;9.09;87.22;101814.16;5053552;27;45720;-76
2022/02/07 02:37:11;;;;;;;;;1.50;0.25;;;;;9.03;85.98;101815.44;5095770;27;45408;-76
2022/02/07 02:47:50;;;;;;;;;1.00;1.00;;;;;9.01;86.14;101855.78;5080228;27;45554;-78
2022/02/07 02:50:36;;;;;;;;;1.25;0.25;;;;;9.00;88.43;101877.25;5047883;27;45497;-76
2022/02/07 02:53:10;;;;;;;;;3.25;2.25;;;;;8.98;88.89;101869.38;5003608;27;45439;-76
2022/02/07 02:55:39;;;;;;;;;1.00;0.00;;;;;8.96;87.98;101871.84;5001713;27;45706;-76
2022/02/07 02:58:06;;;;;;;;;1.25;0.00;;;;;8.92;88.31;101875.00;4996161;27;45473;-77
2022/02/07 03:00:32;;;;;;;;;1.75;0.00;;;;;8.92;87.92;101869.84;4976978;28;45306;-77
2022/02/07 03:02:58;;;;;;;;;3.00;0.50;;;;;8.90;88.78;101876.63;4992975;28;45432;-77
2022/02/07 03:05:24;;;;;;;;;1.25;1.00;;;;;8.91;88.13;101872.34;4994329;27;45887;-77
2022/02/07 03:07:50;;;;;;;;;0.25;0.00;;;;;8.93;89.27;101868.19;4996343;27;45231;-79
2022/02/07 03:10:40;;;;;;;;;1.00;0.50;;;;;8.94;88.90;101869.97;4994079;28;45244;-79
2022/02/07 03:18:19;;;;;;;;;1.50;1.00;;;;;8.90;89.59;101874.03;4980037;28;45471;-80
2022/02/07 03:20:45;;;;;;;;;3.50;1.00;;;;;8.92;90.17;101879.28;4994114;27;45240;-77
2022/02/07 03:23:10;;;;;;;;;1.00;0.50;;;;;8.94;88.95;101893.22;4976289;28;46771;-79
2022/02/07 03:25:36;;;;;;;;;1.00;0.75;;;;;8.96;89.56;101897.69;4988782;27;45366;-80
2022/02/07 03:28:02;;;;;;;;;1.00;0.00;;;;;8.94;89.29;101908.72;5045783;27;45520;-79
2022/02/07 03:30:28;;;;;;;;;1.00;1.00;;;;;8.93;89.95;101905.22;5016040;27;45478;-80
2022/02/07 03:32:53;;;;;;;;;2.00;1.00;;;;;8.95;89.88;101906.22;5032197;27;45921;-80
2022/02/07 03:35:20;;;;;;;;;1.00;1.00;;;;;8.96;89.43;101917.47;4993453;28;45490;-81
2022/02/07 03:37:46;;;;;;;;;0.75;0.00;;;;;8.94;89.40;101917.34;4975761;27;45449;-79
2022/02/07 03:40:12;;;;;;;;;0.25;0.25;;;;;8.93;90.20;101932.75;4993137;28;45620;-83
2022/02/07 03:42:38;;;;;;;;;2.00;0.25;;;;;8.92;89.27;101941.28;4992402;28;45366;-79
2022/02/07 03:45:05;;;;;;;;;0.75;0.75;;;;;8.89;88.35;101941.06;4993326;28;45359;-81
2022/02/07 03:47:31;;;;;;;;;1.25;0.00;;;;;8.86;89.41;101939.16;5000625;27;45446;-83
2022/02/07 03:49:57;;;;;;;;;2.00;1.50;;;;;8.82;89.29;101942.31;4993263;27;45546;-79
2022/02/07 03:52:23;;;;;;;;;0.00;0.00;;;;;8.78;89.17;101953.22;4989757;27;45347;-82
2022/02/07 03:54:49;;;;;;;;;3.75;2.00;;;;;8.77;88.13;101959.19;4976057;28;45740;-79
2022/02/07 03:57:16;;;;;;;;;2.00;0.25;;;;;8.77;89.38;101972.09;4993364;28;45438;-83
2022/02/07 03:59:41;;;;;;;;;1.00;1.00;;;;;8.77;89.04;101975.56;4976730;28;45413;-79
2022/02/07 04:02:07;;;;;;;;;1.00;0.25;;;;;8.79;89.87;101973.09;4997877;27;45974;-76
2022/02/07 04:04:33;;;;;;;;;4.75;2.00;;;;;8.78;89.34;101979.06;5099998;27;45840;-82
2022/02/07 04:06:59;;;;;;;;;2.50;1.00;;;;;8.77;88.54;101982.41;5068119;27;45281;-77
2022/02/07 04:09:31;;;;;;;;;2.75;2.75;;;;;8.79;89.34;101991.19;5005027;27;45512;-77
2022/02/07 04:12:04;;;;;;;;;2.00;0.00;;;;;8.78;88.98;102000.59;4995580;28;45381;-77
2022/02/07 04:14:29;;;;;;;;;3.50;0.75;;;;;8.77;89.15;101997.91;5002085;27;46141;-76
2022/02/07 04:16:55;;;;;;;;;2.75;1.00;;;;;8.77;89.86;102019.44;4996218;27;45584;-77
2022/02/07 04:19:23;;;;;;;;;1.50;1.25;;;;;8.78;89.44;102020.38;4997690;27;45747;-76
2022/02/07 04:21:51;;;;;;;;;4.00;2.00;;;;;8.78;89.72;102013.50;4995013;27;46228;-77
2022/02/07 04:24:17;;;;;;;;;1.25;0.75;;;;;8.79;89.13;102022.16;4995362;28;45362;-77
2022/02/07 04:26:43;;;;;;;;;2.00;1.00;;;;;8.79;90.01;102032.50;4995422;28;45339;-77
2022/02/07 04:29:09;;;;;;;;;0.00;0.00;;;;;8.80;90.27;102032.59;5022837;27;45482;-76
2022/02/07 04:31:35;;;;;;;;;2.50;1.00;;;;;8.77;88.69;102046.97;5020755;27;45828;-77
2022/02/07 04:34:00;;;;;;;;;2.25;1.25;;;;;8.74;89.75;102039.91;5034890;27;45465;-78
2022/02/07 04:36:26;;;;;;;;;5.75;2.00;;;;;8.75;90.37;102048.53;4996391;27;45357;-77
2022/02/07 04:38:52;;;;;;;;;2.25;1.00;;;;;8.76;90.86;102050.34;5000718;27;45476;-76
2022/02/07 04:41:18;;;;;;;;;1.25;0.50;;;;;8.75;90.35;102051.13;5099088;27;45352;-77
2022/02/07 04:43:56;;;;;;;;;4.25;1.50;;;;;8.73;90.74;102053.59;5049509;27;45940;-76
2022/02/07 04:49:42;;;;;;;;;3.25;2.50;;;;;8.72;90.79;102056.97;5096777;27;45330;-78
2022/02/07 04:57:27;;;;;;;;;1.00;1.00;;;;;8.70;90.00;102075.69;5060291;27;45548;-76
2022/02/07 05:13:35;;;;;;;;;2.75;1.00;;;;;8.65;91.50;102081.44;4997173;27;45264;-76
2022/02/07 05:16:18;;;;;;;;;2.00;1.25;;;;;8.60;91.17;102113.75;4979748;28;45371;-77
2022/02/07 05:18:44;;;;;;;;;1.25;0.50;;;;;8.55;91.19;102116.78;5008815;27;45476;-79
2022/02/07 05:21:11;;;;;;;;;1.75;1.00;;;;;8.55;91.57;102120.28;5056132;27;45476;-78
2022/02/07 05:23:37;;;;;;;;;4.25;1.75;;;;;8.55;91.78;102128.03;4994242;28;45390;-77
2022/02/07 05:26:03;;;;;;;;;3.50;3.00;;;;;8.57;91.98;102118.72;4994875;27;45325;-77
2022/02/07 05:28:28;;;;;;;;;2.25;1.00;;;;;8.56;92.12;102119.50;5002807;27;45803;-76
2022/02/07 05:30:54;;;;;;;;;2.50;1.00;;;;;8.56;92.02;102126.31;4994604;28;45502;-76
2022/02/07 05:33:20;;;;;;;;;4.75;2.50;;;;;8.53;91.58;102129.59;4995161;27;45417;-77
2022/02/07 05:35:45;;;;;;;;;5.25;2.00;;;;;8.51;92.19;102141.47;4994837;27;45415;-76
2022/02/07 05:38:11;;;;;;;;;2.00;2.00;;;;;8.49;92.88;102136.19;4994709;28;45328;-82
2022/02/07 05:40:46;;;;;;;;;4.00;1.75;;;;;8.52;93.03;102146.75;4997223;27;45293;-79
2022/02/07 05:43:15;;;;;;;;;1.75;1.75;;;;;8.55;92.68;102158.06;4995807;28;46142;-82
2022/02/07 05:45:41;;;;;;;;;2.00;2.00;;;;;8.51;92.60;102164.69;4994426;28;45437;-84
2022/02/07 05:48:06;;;;;;;;;2.50;2.00;;;;;8.51;92.89;102175.03;4997223;27;45302;-82
2022/02/07 05:50:32;;;;;;;;;3.50;1.00;;;;;8.54;92.87;102184.66;5039988;27;45574;-77
2022/02/07 05:52:59;;;;;;;;;3.50;2.50;;;;;8.54;94.11;102187.25;4993562;27;46067;-75
2022/02/07 05:55:26;;;;;;;;;3.25;1.25;;;;;8.59;93.61;102191.09;5052192;27;45350;-76
2022/02/07 05:57:51;;;;;;;;;3.25;2.25;;;;;8.58;92.38;102189.28;4994774;27;45294;-76
2022/02/07 06:00:17;;;;;;;;;1.75;1.25;;;;;8.58;93.56;102197.97;5035439;27;45417;-75
2022/02/07 06:02:44;;;;;;;;;4.75;1.75;;;;;8.62;94.34;102197.38;5076987;27;46153;-78
2022/02/07 06:05:11;;;;;;;;;2.00;2.00;;;;;8.69;92.73;102197.88;4998566;28;45809;-80
2022/02/07 06:07:36;;;;;;;;;4.00;3.00;;;;;8.64;92.46;102198.41;4994552;28;45350;-76
2022/02/07 06:10:04;;;;;;;;;3.25;2.00;;;;;8.61;92.97;102202.44;5013874;27;45815;-76
2022/02/07 06:12:34;;;;;;;;;3.00;1.00;;;;;8.60;92.96;102198.94;5078452;27;45394;-78
2022/02/07 06:15:01;;;;;;;;;2.00;2.00;;;;;8.57;92.80;102209.06;4994169;28;45826;-77
2022/02/07 06:17:26;;;;;;;;;2.50;1.00;;;;;8.53;93.42;102212.19;5034121;27;45465;-85
2022/02/07 06:19:53;;;;;;;;;5.25;1.00;;;;;8.49;94.04;102215.31;5004690;27;45760;-85
2022/02/07 06:22:19;;;;;;;;;5.25;2.75;;;;;8.49;94.21;102217.88;4998587;27;45485;-81
2022/02/07 06:24:44;;;;;;;;;4.75;3.75;;;;;8.48;94.57;102226.41;5026472;27;45411;-76
2022/02/07 06:27:10;;;;;;;;;4.25;2.75;;;;;8.47;95.07;102225.53;4976192;28;45424;-76
2022/02/07 06:29:36;;;;;;;;;4.75;2.00;;;;;8.49;95.26;102231.72;4991777;28;45572;-76
2022/02/07 06:32:03;;;;;;;;;6.75;3.00;;;;;8.50;95.22;102236.09;4994430;27;46530;-78
2022/02/07 06:34:28;;;;;;;;;4.50;3.75;;;;;8.49;95.49;102238.53;5006201;27;45865;-79
2022/02/07 06:36:54;;;;;;;;;2.25;2.00;;;;;8.47;95.45;102243.59;4990107;28;45544;-76
2022/02/07 06:39:19;;;;;;;;;4.25;1.50;;;;;8.45;96.19;102241.66;4992901;27;45526;-76
2022/02/07 06:41:47;;;;;;;;;4.00;3.50;;;;;8.44;96.20;102252.75;4982431;27;46365;-76
2022/02/07 06:44:13;;;;;;;;;4.50;3.50;;;;;8.48;96.92;102262.53;4975003;28;45900;-75
2022/02/07 06:46:38;;;;;;;;;4.00;3.00;;;;;8.45;96.67;102250.28;4991975;28;45626;-76
2022/02/07 06:49:04;;;;;;;;;4.75;4.00;;;;;8.49;96.79;102259.19;4994705;27;45541;-77
2022/02/07 06:51:30;;;;;;;;;8.25;5.50;;;;;8.48;96.86;102265.13;4992027;28;45630;-79
2022/02/07 06:53:56;;;;;;;;;5.25;3.75;;;;;8.42;96.57;102267.22;4993406;27;45411;-79
2022/02/07 06:56:21;;;;;;;;;1.50;1.50;;;;;8.35;97.00;102276.16;5006824;27;45470;-76
2022/02/07 06:58:48;;;;;;;;;3.25;3.25;;;;;8.29;98.02;102271.41;4993873;28;45698;-78
2022/02/07 07:01:14;;;;;;;;;3.25;1.00;;;;;8.28;97.92;102269.63;4993974;27;45506;-79
2022/02/07 07:03:43;;;;;;;;;5.00;4.00;;;;;8.26;98.33;102281.50;5026873;27;45343;-78
2022/02/07 07:06:12;;;;;;;;;6.25;4.00;;;;;8.18;98.38;102278.34;4993092;28;45480;-79
2022/02/07 07:08:43;;;;;;;;;2.75;2.75;;;;;8.17;99.34;102296.25;5070854;27;45437;-83
2022/02/07 07:11:11;;;;;;;;;3.00;3.00;;;;;8.10;99.81;102286.25;4993345;28;45412;-79
2022/02/07 07:13:46;;;;;;;;;6.25;3.00;;;;;8.10;100.00;102294.88;5001273;28;46008;-80
2022/02/07 07:16:37;;;;;;;;;4.25;3.00;;;;;8.08;100.00;102299.03;4992762;28;45501;-85
2022/02/07 07:18:57;;;;;;;;;4.00;3.00;;;;;8.10;100.00;102294.00;5002383;27;45238;-78
2022/02/07 07:21:25;;;;;;;;;2.25;2.00;;;;;8.11;100.00;102312.16;4991551;28;46054;-78
2022/02/07 07:23:51;;;;;;;;;5.75;3.00;;;;;8.07;100.00;102317.88;5023474;27;45909;-79
2022/02/07 07:26:16;;;;;;;;;2.75;2.50;;;;;8.05;100.00;102315.16;5043357;27;45580;-78
2022/02/07 07:28:42;;;;;;;;;3.00;2.00;;;;;8.05;100.00;102327.16;5002225;28;45553;-78
2022/02/07 07:31:11;;;;;;;;;8.75;5.50;;;;;8.01;100.00;102331.19;4992348;28;45849;-78
2022/02/07 07:33:38;;;;;;;;;6.00;4.75;;;;;7.99;100.00;102331.84;4995443;27;46779;-78
2022/02/07 07:36:04;;;;;;;;;6.50;3.50;;;;;7.95;100.00;102335.81;4999211;27;45542;-81
2022/02/07 07:38:30;;;;;;;;;8.50;4.50;;;;;7.97;100.00;102344.59;4980174;28;45760;-81
2022/02/07 07:40:56;;;;;;;;;5.50;3.00;;;;;8.00;100.00;102349.09;4980239;28;46498;-80
2022/02/07 07:43:22;;;;;;;;;6.00;3.50;;;;;8.01;100.00;102361.22;4994037;27;45478;-83
2022/02/07 07:45:56;;;;;;;;;5.50;4.75;;;;;8.00;100.00;102367.16;4995089;27;45536;-82
2022/02/07 07:48:24;;;;;;;;;4.50;2.25;;;;;8.01;100.00;102382.75;4994655;28;45470;-83
2022/02/07 08:03:48;;;;;;;;;8.75;4.00;;;;;8.17;100.00;102414.94;4998982;27;45384;-80
2022/02/07 08:06:21;;;;;;;;;9.00;6.50;;;;;8.21;100.00;102411.84;4979991;28;45301;-80
2022/02/07 08:09:15;;;;;;;;;5.75;4.00;;;;;8.27;100.00;102426.91;4995570;28;45252;-79
2022/02/07 08:11:39;;;;;;;;;4.75;3.00;;;;;8.27;100.00;102432.97;5001726;27;45482;-80
2022/02/07 08:14:06;;;;;;;;;9.75;4.00;;;;;8.29;100.00;102439.16;4996355;27;45850;-81
2022/02/07 08:16:32;;;;;;;;;3.75;2.50;;;;;8.32;100.00;102447.16;5093062;27;45546;-82
2022/02/07 08:19:05;;;;;;;;;7.25;5.00;;;;;8.33;100.00;102442.88;5108270;27;45336;-80
2022/02/07 08:21:31;;;;;;;;;4.50;3.75;;;;;8.36;100.00;102444.03;5087291;27;45666;-82
2022/02/07 08:23:56;;;;;;;;;7.00;5.00;;;;;8.37;100.00;102450.97;4977632;28;45322;-81
2022/02/07 08:26:22;;;;;;;;;6.00;4.00;;;;;8.42;100.00;102466.88;4995685;28;45335;-82
2022/02/07 08:28:47;;;;;;;;;5.75;5.75;;;;;8.43;100.00;102470.34;4986008;28;45515;-81
2022/02/07 08:31:14;;;;;;;;;5.00;5.00;;;;;8.47;100.00;102475.91;4980997;28;45355;-82
2022/02/07 08:33:39;;;;;;;;;4.25;4.00;;;;;8.46;100.00;102479.22;4995602;27;45407;-81
2022/02/07 08:36:05;;;;;;;;;6.00;4.75;;;;;8.48;100.00;102474.19;4978346;28;45386;-84
2022/02/07 08:38:32;;;;;;;;;10.50;7.25;;;;;8.50;100.00;102482.97;4978047;28;45481;-85
2022/02/07 08:40:58;;;;;;;;;11.50;4.00;;;;;8.53;100.00;102490.97;5002171;28;45997;-87
2022/02/07 08:43:23;;;;;;;;;5.25;3.50;;;;;8.51;100.00;102484.78;4995500;28;45818;-82
2022/02/07 08:45:49;;;;;;;;;8.75;8.00;;;;;8.50;100.00;102485.56;4992168;27;45662;-85
2022/02/07 08:48:14;;;;;;;;;8.50;5.00;;;;;8.49;100.00;102489.84;4995715;27;45413;-81
2022/02/07 08:50:40;;;;;;;;;10.50;8.50;;;;;8.48;100.00;102495.78;4992359;27;45977;-79
2022/02/07 08:53:06;;;;;;;;;11.00;5.00;;;;;8.51;100.00;102500.28;4977285;28;45236;-81
2022/02/07 08:55:36;;;;;;;;;10.00;8.50;;;;;8.49;100.00;102504.41;4977953;28;45296;-82
2022/02/07 08:58:07;;;;;;;;;12.00;7.25;;;;;8.50;100.00;102509.72;4995214;27;45531;-78
2022/02/07 09:00:49;;;;;;;;;7.50;5.75;;;;;8.55;100.00;102519.47;4995326;28;46149;-77
2022/02/07 09:08:38;;;;;;;;;11.00;9.00;;;;;8.59;100.00;102537.03;5011112;27;45349;-82
2022/02/07 09:11:05;;;;;;;;;8.50;5.75;;;;;8.60;100.00;102542.31;5010982;28;45205;-85
2022/02/07 09:13:32;;;;;;;;;10.50;8.00;;;;;8.66;100.00;102544.50;4996438;27;45784;-79
2022/02/07 09:16:05;;;;;;;;;10.25;7.75;;;;;8.65;100.00;102566.84;5012449;27;45590;-82
2022/02/07 09:18:31;;;;;;;;;7.25;5.25;;;;;8.68;100.00;102566.19;5005131;27;45454;-81
2022/02/07 09:20:59;;;;;;;;;9.25;6.25;;;;;8.70;100.00;102576.63;5055473;27;45628;-80
2022/02/07 09:23:27;;;;;;;;;5.50;4.75;;;;;8.71;100.00;102565.50;5050878;27;45341;-80
2022/02/07 09:25:53;;;;;;;;;11.00;6.00;;;;;8.75;100.00;102578.78;5059104;27;45670;-83
2022/02/07 09:28:19;;;;;;;;;9.25;7.75;;;;;8.79;100.00;102590.31;5056316;27;45564;-85
2022/02/07 09:30:45;;;;;;;;;10.00;8.50;;;;;8.82;100.00;102593.09;5074780;27;46113;-87
2022/02/07 09:33:11;;;;;;;;;10.00;8.50;;;;;8.84;100.00;102596.72;5034750;27;45340;-95
2022/02/07 09:35:37;;;;;;;;;11.00;9.00;;;;;8.84;100.00;102607.06;5038330;27;45419;-90
2022/02/07 09:38:03;;;;;;;;;6.50;6.50;;;;;8.87;100.00;102609.91;5042806;27;44881;-82
2022/02/07 09:40:29;;;;;;;;;6.00;5.50;;;;;8.89;100.00;102626.44;5045341;27;46064;-82
2022/02/07 09:42:58;;;;;;;;;14.75;7.25;;;;;8.92;100.00;102631.81;4986511;28;46230;-77
2022/02/07 09:45:38;;;;;;;;;7.75;5.50;;;;;8.95;100.00;102647.56;4993450;28;45561;-77
2022/02/07 09:48:06;;;;;;;;;13.00;8.00;;;;;8.95;100.00;102655.31;5036770;27;45857;-77
2022/02/07 09:50:33;;;;;;;;;9.75;8.00;;;;;8.98;100.00;102652.09;5009367;27;45259;-81
2022/02/07 09:52:59;;;;;;;;;8.00;7.75;;;;;8.98;100.00;102657.25;4994379;27;45886;-81
2022/02/07 09:55:25;;;;;;;;;8.00;5.00;;;;;8.99;100.00;102656.47;4994155;28;45260;-81
2022/02/07 09:57:53;;;;;;;;;6.25;5.75;;;;;9.01;100.00;102662.66;5014002;27;45597;-81
2022/02/07 10:00:25;;;;;;;;;10.50;5.75;;;;;9.04;100.00;102669.75;5066048;27;45970;-82
2022/02/07 10:03:06;;;;;;;;;9.00;5.00;;;;;9.06;100.00;102674.28;4993843;28;45268;-81
2022/02/07 10:05:46;;;;;;;;;5.50;4.25;;;;;9.07;100.00;102681.25;4994726;27;45461;-82
2022/02/07 10:08:31;;;;;;;;;3.75;3.75;;;;;9.10;100.00;102696.13;4994397;28;45410;-80
2022/02/07 10:16:34;;;;;;;;;8.25;5.75;;;;;9.21;100.00;102687.56;4991788;28;45383;-84
2022/02/07 10:44:38;;;;;;;;;4.00;2.50;;;;;9.49;98.26;102705.25;4989955;28;45317;-80
2022/02/07 10:47:14;;;;;;;;;4.50;4.00;;;;;9.50;99.37;102701.00;4993654;28;45394;-80
2022/02/07 10:50:01;;;;;;;;;6.00;3.00;;;;;9.55;100.00;102700.59;4993908;28;45409;-76
2022/02/07 10:52:28;;;;;;;;;5.50;2.75;;;;;9.57;100.00;102700.69;4993383;28;45481;-78
2022/02/07 10:54:54;;;;;;;;;17.50;12.50;;;;;9.62;99.86;102708.81;4994968;27;45422;-76
2022/02/07 10:57:20;;;;;;;;;4.50;4.00;;;;;9.66;98.17;102705.72;4979117;28;45576;-78
2022/02/07 10:59:47;;;;;;;;;7.25;5.50;;;;;9.69;97.91;102701.69;4993002;27;45366;-78
2022/02/07 11:05:01;;;;;;;;;5.00;3.00;;;;;9.73;94.57;102693.34;4993427;28;45379;-78
2022/02/07 11:07:30;;;;;;;;;4.25;3.50;;;;;9.74;92.75;102696.88;4993302;28;45812;-78
2022/02/07 11:15:27;;;;;;;;;2.00;2.00;;;;;9.72;89.00;102709.66;4992945;27;45472;-78
2022/02/07 11:18:09;;;;;;;;;3.00;3.00;;;;;9.71;89.09;102709.56;4992880;28;45537;-78
2022/02/07 11:20:57;;;;;;;;;8.25;5.25;;;;;9.73;88.90;102703.72;4992600;27;45352;-77
2022/02/07 11:26:31;;;;;;;;;5.00;2.00;;;;;9.74;88.41;102692.59;5001190;28;45521;-78
2022/02/07 11:28:57;;;;;;;;;2.75;2.00;;;;;9.76;87.97;102703.06;5022534;27;45989;-80
2022/02/07 11:31:29;;;;;;;;;5.00;1.50;;;;;9.79;87.76;102708.47;5012307;27;45406;-76
2022/02/07 11:34:01;;;;;;;;;5.25;3.00;;;;;9.80;89.03;102707.69;5013774;27;45641;-78
2022/02/07 11:36:34;;;;;;;;;10.25;7.75;;;;;9.84;89.68;102708.81;4991571;28;45437;-77
2022/02/07 11:39:06;;;;;;;;;11.00;6.25;;;;;9.90;89.97;102719.66;4992918;28;45865;-77
2022/02/07 11:41:54;;;;;;;;;6.00;3.50;;;;;9.94;86.64;102720.81;4998223;27;45553;-78
2022/02/07 11:44:26;;;;;;;;;3.00;3.00;;;;;9.97;86.06;102721.94;5000008;27;45576;-79
2022/02/07 11:47:24;;;;;;;;;3.75;3.00;;;;;10.01;85.50;102731.75;4992059;27;45532;-82
2022/02/07 11:49:53;;;;;;;;;4.00;3.00;;;;;10.05;83.29;102738.06;4989632;28;45565;-86
2022/02/07 11:52:32;;;;;;;;;2.25;2.00;;;;;10.04;84.92;102725.91;5001399;28;45274;-83
2022/02/07 11:55:09;;;;;;;;;4.50;1.25;;;;;10.04;84.09;102734.56;4987217;28;45274;-88
2022/02/07 11:57:38;;;;;;;;;3.25;2.50;;;;;10.03;83.93;102732.78;4986746;28;45293;-88
2022/02/07 12:00:17;;;;;;;;;6.75;2.75;;;;;10.03;83.85;102731.88;4981572;28;45888;-84
2022/02/07 12:02:49;;;;;;;;;1.00;1.00;;;;;10.09;84.56;102726.28;4982806;28;45230;-85
2022/02/07 12:05:21;;;;;;;;;4.50;2.75;;;;;10.18;82.44;102738.25;4977257;28;45340;-88
2022/02/07 12:08:07;;;;;;;;;3.75;3.50;;;;;10.24;82.58;102722.28;4980753;28;45446;-94
2022/02/07 12:13:07;;;;;;;;;2.75;1.75;;;;;10.28;81.85;102713.97;4974504;28;45397;-85
2022/02/07 12:15:48;;;;;;;;;3.00;3.00;;;;;10.34;83.07;102717.03;4958150;28;45905;-85
2022/02/07 12:18:14;;;;;;;;;5.75;4.25;;;;;10.44;82.13;102721.25;4979617;28;45361;-92
2022/02/07 12:20:43;;;;;;;;;4.00;4.00;;;;;10.53;80.79;102709.00;4995963;28;45292;-85
2022/02/07 12:23:17;;;;;;;;;11.25;6.50;;;;;10.63;80.84;102714.88;4998717;28;45651;-86
2022/02/07 12:26:00;;;;;;;;;9.50;5.75;;;;;10.71;82.27;102718.03;4975839;28;45269;-86
2022/02/07 12:33:39;;;;;;;;;5.50;3.75;;;;;10.82;81.06;102711.97;4996109;28;45430;-86
2022/02/07 12:36:07;;;;;;;;;2.00;2.00;;;;;10.93;80.58;102702.41;4978548;28;45605;-87
2022/02/07 12:38:37;;;;;;;;;3.00;2.00;;;;;11.01;80.14;102696.09;4996725;28;45501;-81
2022/02/07 12:41:05;;;;;;;;;5.75;4.00;;;;;11.14;80.39;102701.41;4995870;28;45492;-81
2022/02/07 12:43:35;;;;;;;;;6.50;4.00;;;;;11.29;80.51;102700.69;4993401;28;45585;-79
2022/02/07 12:46:03;;;;;;;;;6.00;5.00;;;;;11.36;80.27;102708.13;4987856;28;45476;-82
2022/02/07 12:48:35;;;;;;;;;2.00;2.00;;;;;11.42;79.08;102705.97;4995114;27;45483;-78
2022/02/07 12:51:02;;;;;;;;;4.25;3.00;;;;;11.44;76.23;102712.19;4996501;27;46001;-78
2022/02/07 12:53:29;;;;;;;;;2.00;2.00;;;;;11.46;76.78;102710.59;4995167;28;45444;-79
2022/02/07 12:55:59;;;;;;;;;4.50;4.00;;;;;11.48;76.60;102712.41;4995113;28;45511;-78
2022/02/07 12:58:44;;;;;;;;;3.25;2.50;;;;;11.46;74.47;102699.31;4994286;28;45988;-78
2022/02/07 13:01:27;;;;;;;;;3.25;2.50;;;;;11.45;75.08;102698.41;4994358;28;45547;-78
2022/02/07 13:04:05;;;;;;;;;2.75;1.50;;;;;11.45;75.15;102698.41;4984123;28;45240;-78
2022/02/07 13:06:40;;;;;;;;;3.75;3.00;;;;;11.46;74.38;102700.22;5010901;28;45351;-79
2022/02/07 13:09:20;;;;;;;;;2.25;1.50;;;;;11.50;73.34;102706.53;4994213;28;45481;-78
2022/02/07 13:11:49;;;;;;;;;2.75;1.75;;;;;11.54;72.21;102716.34;4993467;28;45372;-78
2022/02/07 13:14:18;;;;;;;;;1.75;1.00;;;;;11.59;72.34;102698.50;4998120;28;45442;-80
2022/02/07 13:16:45;;;;;;;;;7.00;2.25;;;;;11.74;72.31;102716.84;4974872;27;45654;-81
2022/02/07 13:19:13;;;;;;;;;2.00;1.75;;;;;11.88;70.88;102725.59;4976853;28;45981;-81
2022/02/07 13:21:45;;;;;;;;;1.75;1.00;;;;;12.02;70.63;102704.16;4993090;28;45697;-82
2022/02/07 13:24:22;;;;;;;;;4.25;2.00;;;;;12.23;71.62;102709.03;5015534;27;45389;-82
2022/02/07 13:26:56;;;;;;;;;4.50;1.75;;;;;12.42;69.78;102703.38;4988811;28;45235;-82
2022/02/07 13:29:27;;;;;;;;;3.00;1.50;;;;;12.49;66.52;102712.47;4994998;28;46144;-80
2022/02/07 13:32:05;;;;;;;;;7.25;2.50;;;;;12.58;68.19;102714.81;4997621;28;45305;-81
2022/02/07 13:34:33;;;;;;;;;2.75;2.00;;;;;12.65;68.28;102720.53;4997612;28;45234;-81
2022/02/07 13:37:29;;;;;;;;;5.50;2.75;;;;;12.61;65.92;102713.31;4996880;28;45581;-81
2022/02/07 13:40:05;;;;;;;;;3.25;2.25;;;;;12.57;66.87;102715.59;4957878;28;46644;-83
2022/02/07 13:42:35;;;;;;;;;3.00;3.00;;;;;12.51;67.49;102717.00;4975596;28;45772;-83
2022/02/07 13:45:29;;;;;;;;;4.00;4.00;;;;;12.41;67.00;102722.38;4975529;28;45434;-82
2022/02/07 13:47:58;;;;;;;;;3.25;2.75;;;;;12.36;66.97;102728.94;4975317;27;45610;-83
2022/02/07 13:50:29;;;;;;;;;4.25;2.75;;;;;12.35;67.26;102732.31;4993685;27;46205;-83
2022/02/07 13:52:57;;;;;;;;;2.00;2.00;;;;;12.39;66.68;102726.56;4976609;28;45419;-83
2022/02/07 13:55:42;;;;;;;;;2.75;2.00;;;;;12.46;66.39;102718.38;4994308;28;45480;-82
2022/02/07 13:58:33;;;;;;;;;2.00;2.00;;;;;12.60;65.06;102727.09;4997537;28;45641;-83
2022/02/07 14:00:59;;;;;;;;;3.00;3.00;;;;;12.71;66.13;102714.84;4997826;28;45446;-82
2022/02/07 14:03:48;;;;;;;;;5.00;2.00;;;;;12.81;65.61;102721.53;4995487;28;45410;-82
2022/02/07 14:06:17;;;;;;;;;2.75;0.75;;;;;12.85;63.38;102714.03;4976618;28;45352;-84
2022/02/07 14:08:55;;;;;;;;;3.25;3.25;;;;;12.84;58.57;102716.53;4994011;28;45502;-82
2022/02/07 14:11:29;;;;;;;;;2.00;1.00;;;;;12.82;60.64;102719.06;4994380;28;45401;-82
2022/02/07 14:13:58;;;;;;;;;2.00;2.00;;;;;12.76;60.60;102717.75;4993421;27;45704;-82
2022/02/07 14:16:26;;;;;;;;;4.00;3.50;;;;;12.71;59.60;102720.03;4976462;28;45292;-82
2022/02/07 14:18:52;;;;;;;;;4.00;1.50;;;;;12.68;60.90;102728.53;4994270;28;45408;-83
2022/02/07 14:21:21;;;;;;;;;2.00;1.00;;;;;12.63;57.34;102718.63;4993933;28;45339;-83